Pearcy, Arkansas
Current Conditions -  °F | °C
As of 2:53 PM on Sunday 21 Dec 2014 (Local Time) from KHOT Reporting Station
Scattered Clouds Scattered Clouds  
Wind Chill: 12°   Ceiling: Unl
Heat Index: 12°   Visibility: 10mi
Dew Point:   Wind: 6mph
Humidity: 57%   Direction: 140°SE
Pressure: 29.97"   Gusts: NA
Location:  34.43°N, 93.29°W
Report Text: KHOT 212053Z AUTO 14005KT 10SM FEW036 SCT100 12/03 A2997 RMK AO2 SLP150 T01170033 56042
Loading
Personal Weather Stations






























Interactive Weather Map New forecast layout! Learn more

10-Day Weather Forecast

Advertisements
Track Severe Weather on mobile